sensor_id;sensor_type;location;lat;lon;timestamp;temperature;humidity
37342;DHT22;58643;49.052;8.518;2023-07-08T10:45:13;33.50;55.40
37342;DHT22;58643;49.052;8.518;2023-07-08T10:47:58;32.70;56.10
37342;DHT22;58643;49.052;8.518;2023-07-08T10:53:57;32.50;56.20
37342;DHT22;58643;49.052;8.518;2023-07-08T11:02:15;34.00;55.10
37342;DHT22;58643;49.052;8.518;2023-07-08T11:04:56;33.60;55.10
37342;DHT22;58643;49.052;8.518;2023-07-08T11:07:38;34.10;54.90
37342;DHT22;58643;49.052;8.518;2023-07-08T11:13:02;34.70;55.00
37342;DHT22;58643;49.052;8.518;2023-07-08T11:18:25;34.00;57.10
37342;DHT22;58643;49.052;8.518;2023-07-08T11:21:00;33.60;57.40
37342;DHT22;58643;49.052;8.518;2023-07-08T11:23:40;33.80;58.10
37342;DHT22;58643;49.052;8.518;2023-07-08T11:26:30;34.10;57.30
37342;DHT22;58643;49.052;8.518;2023-07-08T11:29:00;33.90;57.00
37342;DHT22;58643;49.052;8.518;2023-07-08T11:31:30;33.70;57.60
37342;DHT22;58643;49.052;8.518;2023-07-08T11:33:57;34.20;56.40
37342;DHT22;58643;49.052;8.518;2023-07-08T11:36:24;34.60;56.00
37342;DHT22;58643;49.052;8.518;2023-07-08T11:38:54;34.30;56.70
37342;DHT22;58643;49.052;8.518;2023-07-08T11:41:22;34.60;55.80
37342;DHT22;58643;49.052;8.518;2023-07-08T11:43:54;34.20;55.20
37342;DHT22;58643;49.052;8.518;2023-07-08T11:46:27;33.70;56.50
37342;DHT22;58643;49.052;8.518;2023-07-08T11:49:10;37.00;58.80
37342;DHT22;58643;49.052;8.518;2023-07-08T11:51:39;34.50;56.00
37342;DHT22;58643;49.052;8.518;2023-07-08T11:54:19;34.40;55.40
37342;DHT22;58643;49.052;8.518;2023-07-08T11:59:30;34.10;55.40
37342;DHT22;58643;49.052;8.518;2023-07-08T12:02:11;33.80;56.40
37342;DHT22;58643;49.052;8.518;2023-07-08T12:04:57;34.10;56.60
37342;DHT22;58643;49.052;8.518;2023-07-08T12:10:45;34.00;55.40
37342;DHT22;58643;49.052;8.518;2023-07-08T12:13:02;34.20;55.00
37342;DHT22;58643;49.052;8.518;2023-07-08T12:15:30;34.70;54.10
37342;DHT22;58643;49.052;8.518;2023-07-08T12:18:20;34.90;53.60
37342;DHT22;58643;49.052;8.518;2023-07-08T12:20:52;35.00;53.80
37342;DHT22;58643;49.052;8.518;2023-07-08T12:23:22;35.20;54.10
37342;DHT22;58643;49.052;8.518;2023-07-08T12:25:48;35.20;54.00
37342;DHT22;58643;49.052;8.518;2023-07-08T12:28:14;35.80;53.40
37342;DHT22;58643;49.052;8.518;2023-07-08T12:30:42;36.00;52.40
37342;DHT22;58643;49.052;8.518;2023-07-08T12:33:12;36.00;52.10
37342;DHT22;58643;49.052;8.518;2023-07-08T12:35:40;35.90;52.50
37342;DHT22;58643;49.052;8.518;2023-07-08T12:38:29;36.60;51.50
37342;DHT22;58643;49.052;8.518;2023-07-08T12:40:58;36.70;50.70
37342;DHT22;58643;49.052;8.518;2023-07-08T12:43:24;36.50;50.50
37342;DHT22;58643;49.052;8.518;2023-07-08T12:45:49;36.70;51.10
37342;DHT22;58643;49.052;8.518;2023-07-08T12:48:15;37.90;51.00
37342;DHT22;58643;49.052;8.518;2023-07-08T12:50:40;38.80;49.60
37342;DHT22;58643;49.052;8.518;2023-07-08T12:53:06;38.80;48.60
37342;DHT22;58643;49.052;8.518;2023-07-08T12:55:44;37.90;48.50
37342;DHT22;58643;49.052;8.518;2023-07-08T12:58:18;37.70;49.20
37342;DHT22;58643;49.052;8.518;2023-07-08T13:00:45;37.70;47.90
37342;DHT22;58643;49.052;8.518;2023-07-08T13:03:20;38.40;48.30
37342;DHT22;58643;49.052;8.518;2023-07-08T13:05:47;39.10;48.00
37342;DHT22;58643;49.052;8.518;2023-07-08T13:08:15;40.00;46.90
37342;DHT22;58643;49.052;8.518;2023-07-08T13:10:42;40.20;45.90
37342;DHT22;58643;49.052;8.518;2023-07-08T13:13:13;40.10;47.30
37342;DHT22;58643;49.052;8.518;2023-07-08T13:15:42;40.60;47.40
37342;DHT22;58643;49.052;8.518;2023-07-08T13:18:35;41.50;45.50
37342;DHT22;58643;49.052;8.518;2023-07-08T13:21:03;41.60;44.80
37342;DHT22;58643;49.052;8.518;2023-07-08T13:23:29;43.00;44.70
37342;DHT22;58643;49.052;8.518;2023-07-08T13:25:55;42.80;44.10
37342;DHT22;58643;49.052;8.518;2023-07-08T13:28:27;42.70;43.30
37342;DHT22;58643;49.052;8.518;2023-07-08T13:30:55;43.10;44.00
37342;DHT22;58643;49.052;8.518;2023-07-08T13:33:22;41.30;44.20
37342;DHT22;58643;49.052;8.518;2023-07-08T13:35:50;40.70;44.80
37342;DHT22;58643;49.052;8.518;2023-07-08T13:38:24;41.10;45.30
37342;DHT22;58643;49.052;8.518;2023-07-08T13:40:55;41.20;43.70
37342;DHT22;58643;49.052;8.518;2023-07-08T13:43:40;40.80;44.30
37342;DHT22;58643;49.052;8.518;2023-07-08T13:48:56;43.50;42.70
37342;DHT22;58643;49.052;8.518;2023-07-08T13:51:22;44.00;43.10
37342;DHT22;58643;49.052;8.518;2023-07-08T13:56:25;42.90;43.10
37342;DHT22;58643;49.052;8.518;2023-07-08T13:58:53;42.80;44.10
37342;DHT22;58643;49.052;8.518;2023-07-08T14:01:25;43.70;43.20
37342;DHT22;58643;49.052;8.518;2023-07-08T14:03:53;43.80;42.50
37342;DHT22;58643;49.052;8.518;2023-07-08T14:06:27;43.10;43.20
37342;DHT22;58643;49.052;8.518;2023-07-08T14:09:06;42.50;42.80
37342;DHT22;58643;49.052;8.518;2023-07-08T14:11:35;41.90;43.40
37342;DHT22;58643;49.052;8.518;2023-07-08T14:14:00;41.50;43.40
37342;DHT22;58643;49.052;8.518;2023-07-08T14:16:30;41.60;44.70
37342;DHT22;58643;49.052;8.518;2023-07-08T14:18:58;41.50;44.70
37342;DHT22;58643;49.052;8.518;2023-07-08T14:21:25;42.60;43.50
37342;DHT22;58643;49.052;8.518;2023-07-08T14:23:50;43.40;43.00
37342;DHT22;58643;49.052;8.518;2023-07-08T14:26:19;44.00;43.00
37342;DHT22;58643;49.052;8.518;2023-07-08T14:28:45;44.20;42.90
37342;DHT22;58643;49.052;8.518;2023-07-08T14:31:11;44.40;42.10
37342;DHT22;58643;49.052;8.518;2023-07-08T14:33:38;44.90;42.10
37342;DHT22;58643;49.052;8.518;2023-07-08T14:36:10;46.10;41.10
37342;DHT22;58643;49.052;8.518;2023-07-08T14:38:36;46.60;41.50
37342;DHT22;58643;49.052;8.518;2023-07-08T14:41:02;46.70;40.10
37342;DHT22;58643;49.052;8.518;2023-07-08T14:43:30;46.50;40.60
37342;DHT22;58643;49.052;8.518;2023-07-08T14:45:56;45.80;39.90
37342;DHT22;58643;49.052;8.518;2023-07-08T14:48:24;45.20;40.70
37342;DHT22;58643;49.052;8.518;2023-07-08T14:50:50;44.10;41.80
37342;DHT22;58643;49.052;8.518;2023-07-08T14:53:17;44.10;41.60
37342;DHT22;58643;49.052;8.518;2023-07-08T14:55:46;44.50;41.90
37342;DHT22;58643;49.052;8.518;2023-07-08T14:58:23;45.00;41.40
37342;DHT22;58643;49.052;8.518;2023-07-08T15:00:51;44.30;42.50
37342;DHT22;58643;49.052;8.518;2023-07-08T15:03:17;44.10;41.60
37342;DHT22;58643;49.052;8.518;2023-07-08T15:05:42;43.00;42.00
37342;DHT22;58643;49.052;8.518;2023-07-08T15:08:08;42.10;42.50
37342;DHT22;58643;49.052;8.518;2023-07-08T15:10:34;42.10;42.40
37342;DHT22;58643;49.052;8.518;2023-07-08T15:13:02;42.70;42.40
37342;DHT22;58643;49.052;8.518;2023-07-08T15:15:34;42.90;42.20
37342;DHT22;58643;49.052;8.518;2023-07-08T15:18:02;42.40;43.10
37342;DHT22;58643;49.052;8.518;2023-07-08T15:20:32;42.50;42.60
37342;DHT22;58643;49.052;8.518;2023-07-08T15:22:58;42.70;42.80
37342;DHT22;58643;49.052;8.518;2023-07-08T15:25:24;42.60;42.90
37342;DHT22;58643;49.052;8.518;2023-07-08T15:27:52;43.20;41.90
37342;DHT22;58643;49.052;8.518;2023-07-08T15:30:24;42.90;42.70
37342;DHT22;58643;49.052;8.518;2023-07-08T15:32:50;42.90;42.10
37342;DHT22;58643;49.052;8.518;2023-07-08T15:35:25;42.20;41.80
37342;DHT22;58643;49.052;8.518;2023-07-08T15:37:55;41.70;42.40
37342;DHT22;58643;49.052;8.518;2023-07-08T15:40:22;41.90;42.90
37342;DHT22;58643;49.052;8.518;2023-07-08T15:42:53;42.70;42.30
37342;DHT22;58643;49.052;8.518;2023-07-08T15:45:25;43.20;42.10
37342;DHT22;58643;49.052;8.518;2023-07-08T15:47:51;43.40;41.30
37342;DHT22;58643;49.052;8.518;2023-07-08T15:50:20;43.00;41.00
37342;DHT22;58643;49.052;8.518;2023-07-08T15:52:46;42.90;42.30
37342;DHT22;58643;49.052;8.518;2023-07-08T15:55:13;43.80;42.30
37342;DHT22;58643;49.052;8.518;2023-07-08T15:57:49;44.00;40.80
37342;DHT22;58643;49.052;8.518;2023-07-08T16:00:20;44.20;41.30
37342;DHT22;58643;49.052;8.518;2023-07-08T16:02:52;44.60;42.50
37342;DHT22;58643;49.052;8.518;2023-07-08T16:05:19;45.00;40.50
37342;DHT22;58643;49.052;8.518;2023-07-08T16:07:46;44.90;40.50
37342;DHT22;58643;49.052;8.518;2023-07-08T16:10:13;44.00;40.60
37342;DHT22;58643;49.052;8.518;2023-07-08T16:12:38;44.00;40.80
37342;DHT22;58643;49.052;8.518;2023-07-08T16:15:05;44.40;41.00
37342;DHT22;58643;49.052;8.518;2023-07-08T16:17:33;44.80;41.20
37342;DHT22;58643;49.052;8.518;2023-07-08T16:20:01;44.80;40.60
37342;DHT22;58643;49.052;8.518;2023-07-08T16:22:27;44.40;40.90
37342;DHT22;58643;49.052;8.518;2023-07-08T16:24:53;44.70;40.50
37342;DHT22;58643;49.052;8.518;2023-07-08T16:27:18;44.30;41.40
37342;DHT22;58643;49.052;8.518;2023-07-08T16:29:44;44.10;41.00
37342;DHT22;58643;49.052;8.518;2023-07-08T16:32:13;44.20;41.20
37342;DHT22;58643;49.052;8.518;2023-07-08T16:34:39;43.50;40.80
37342;DHT22;58643;49.052;8.518;2023-07-08T16:37:05;43.30;41.80
37342;DHT22;58643;49.052;8.518;2023-07-08T16:39:31;43.80;42.30
37342;DHT22;58643;49.052;8.518;2023-07-08T16:41:56;44.10;40.90
